createdAt,value
2023-02-12T00:01:54.774Z,-1.00
2023-02-12T00:04:23.301Z,-1.00
2023-02-12T00:06:53.169Z,-1.00
2023-02-12T00:09:24.105Z,-1.00
2023-02-12T00:11:52.754Z,-1.00
2023-02-12T00:14:21.307Z,-1.00
2023-02-12T00:16:49.810Z,-1.10
2023-02-12T00:19:18.447Z,-1.10
2023-02-12T00:21:47.087Z,-1.20
2023-02-12T00:24:16.991Z,-1.20
2023-02-12T00:26:45.531Z,-1.10
2023-02-12T00:29:13.934Z,-1.10
2023-02-12T00:31:42.547Z,-1.10
2023-02-12T00:34:12.638Z,-1.10
2023-02-12T00:36:41.093Z,-1.10
2023-02-12T00:39:11.554Z,-1.10
2023-02-12T00:41:41.384Z,-1.20
2023-02-12T00:44:09.980Z,-1.20
2023-02-12T00:46:47.734Z,-1.30
2023-02-12T00:49:16.285Z,-1.30
2023-02-12T00:51:44.757Z,-1.30
2023-02-12T00:54:13.377Z,-1.30
2023-02-12T00:56:43.605Z,-1.30
2023-02-12T00:59:12.032Z,-1.30
2023-02-12T01:01:40.505Z,-1.30
2023-02-12T01:04:09.117Z,-1.30
2023-02-12T01:06:37.598Z,-1.30
2023-02-12T01:09:06.196Z,-1.30
2023-02-12T01:11:34.693Z,-1.30
2023-02-12T01:14:04.990Z,-1.30
2023-02-12T01:16:36.516Z,-1.40
2023-02-12T01:19:06.489Z,-1.20
2023-02-12T01:21:36.473Z,-1.40
2023-02-12T01:24:05.605Z,-1.40
2023-02-12T01:26:34.445Z,-1.30
2023-02-12T01:29:08.344Z,-1.30
2023-02-12T01:31:40.421Z,-1.30
2023-02-12T01:34:11.508Z,-1.30
2023-02-12T01:36:40.576Z,-1.30
2023-02-12T01:39:09.208Z,-1.20
2023-02-12T01:41:42.375Z,-1.20
2023-02-12T01:44:17.790Z,-1.20
2023-02-12T01:46:48.245Z,-1.20
2023-02-12T01:49:23.744Z,-1.20
2023-02-12T01:51:56.156Z,-1.20
2023-02-12T01:54:26.900Z,-1.10
2023-02-12T01:56:56.114Z,-1.20
2023-02-12T01:59:26.711Z,-1.20
2023-02-12T02:01:56.208Z,-1.20
2023-02-12T02:04:29.225Z,-1.20
2023-02-12T02:07:01.121Z,-1.20
2023-02-12T02:09:31.578Z,-1.20
2023-02-12T02:12:17.743Z,-1.30
2023-02-12T02:14:49.452Z,-1.40
2023-02-12T02:17:51.613Z,-1.40
2023-02-12T02:21:09.838Z,-1.40
2023-02-12T02:24:06.961Z,-1.40
2023-02-12T02:27:17.671Z,-1.50
2023-02-12T02:30:33.233Z,-1.60
2023-02-12T02:33:26.901Z,-1.70
2023-02-12T02:36:08.067Z,-1.60
2023-02-12T02:39:06.512Z,-1.80
2023-02-12T02:41:40.986Z,-1.80
2023-02-12T02:44:18.001Z,-1.80
2023-02-12T02:46:51.418Z,-1.70
2023-02-12T02:49:25.254Z,-1.70
2023-02-12T02:52:03.782Z,-1.70
2023-02-12T02:54:38.961Z,-1.60
2023-02-12T02:57:15.610Z,-1.80
2023-02-12T02:59:51.487Z,-1.80
2023-02-12T03:02:29.117Z,-1.80
2023-02-12T03:05:03.947Z,-1.70
2023-02-12T03:07:39.705Z,-1.70
2023-02-12T03:10:14.737Z,-1.70
2023-02-12T03:12:52.424Z,-1.70
2023-02-12T03:15:27.560Z,-1.70
2023-02-12T03:18:01.051Z,-1.70
2023-02-12T03:20:45.925Z,-1.60
2023-02-12T03:23:20.748Z,-1.60
2023-02-12T03:25:57.891Z,-1.60
2023-02-12T03:28:32.604Z,-1.60
2023-02-12T03:31:12.067Z,-1.50
2023-02-12T03:33:59.615Z,-1.40
2023-02-12T03:36:44.323Z,-1.40
2023-02-12T03:39:20.342Z,-1.30
2023-02-12T03:42:06.733Z,-1.30
2023-02-12T03:44:51.092Z,-1.30
2023-02-12T03:47:28.001Z,-1.20
2023-02-12T03:50:07.926Z,-1.20
2023-02-12T03:52:37.305Z,-1.10
2023-02-12T03:55:08.371Z,-1.00
2023-02-12T03:57:47.721Z,-1.00
2023-02-12T04:00:21.662Z,-1.00
2023-02-12T04:02:50.882Z,-1.00
2023-02-12T04:05:24.312Z,-1.00
2023-02-12T04:07:59.755Z,-0.90
2023-02-12T04:10:36.929Z,-0.90
2023-02-12T04:13:20.152Z,-0.90
2023-02-12T04:16:06.487Z,-0.90
2023-02-12T04:18:43.276Z,-0.90
2023-02-12T04:21:33.327Z,-0.80
2023-02-12T04:24:13.935Z,-0.80
2023-02-12T04:26:53.871Z,-0.80
2023-02-12T04:29:33.478Z,-0.70
2023-02-12T04:32:13.318Z,-0.70
2023-02-12T04:34:52.657Z,-0.70
2023-02-12T04:37:27.346Z,-0.70
2023-02-12T04:39:57.934Z,-0.60
2023-02-12T04:42:26.540Z,-0.60
2023-02-12T04:44:55.060Z,-0.60
2023-02-12T04:47:23.487Z,-0.50
2023-02-12T04:49:53.589Z,-0.50
2023-02-12T04:52:23.405Z,-0.40
2023-02-12T04:54:51.858Z,-0.40
2023-02-12T04:57:20.340Z,-0.30
2023-02-12T04:59:48.739Z,-0.30
2023-02-12T05:02:17.247Z,-0.20
2023-02-12T05:04:45.684Z,-0.20
2023-02-12T05:07:14.136Z,-0.10
2023-02-12T05:09:44.136Z,-0.10
2023-02-12T05:12:12.612Z,0.00
2023-02-12T05:14:41.353Z,0.10
2023-02-12T05:17:09.876Z,0.10
2023-02-12T05:19:38.344Z,0.20
2023-02-12T05:22:06.903Z,0.30
2023-02-12T05:24:35.396Z,0.30
2023-02-12T05:27:05.425Z,0.40
2023-02-12T05:29:33.878Z,0.40
2023-02-12T05:32:02.497Z,0.50
2023-02-12T05:34:31.271Z,0.50
2023-02-12T05:36:59.770Z,0.50
2023-02-12T05:39:28.463Z,0.50
2023-02-12T05:41:56.853Z,0.50
2023-02-12T05:44:26.753Z,0.50
2023-02-12T05:46:55.188Z,0.40
2023-02-12T05:49:23.670Z,0.40
2023-02-12T05:51:52.265Z,0.30
2023-02-12T05:54:20.732Z,0.30
2023-02-12T05:56:49.655Z,0.40
2023-02-12T05:59:21.741Z,0.40
2023-02-12T06:01:53.881Z,0.40
2023-02-12T06:04:25.552Z,0.40
2023-02-12T06:06:55.948Z,0.50
2023-02-12T06:09:25.294Z,0.40
2023-02-12T06:11:54.038Z,0.40
2023-02-12T06:14:23.382Z,0.50
2023-02-12T06:16:56.468Z,0.40
2023-02-12T06:19:25.560Z,0.40
2023-02-12T06:22:05.047Z,0.50
2023-02-12T06:24:33.748Z,0.40
2023-02-12T06:27:02.207Z,0.40
2023-02-12T06:29:30.819Z,0.40
2023-02-12T06:32:00.836Z,0.40
2023-02-12T06:34:29.429Z,0.30
2023-02-12T06:36:58.368Z,0.40
2023-02-12T06:39:26.924Z,0.30
2023-02-12T06:41:55.426Z,0.30
2023-02-12T06:44:23.886Z,0.30
2023-02-12T06:46:52.345Z,0.30
2023-02-12T06:49:22.216Z,0.40
2023-02-12T06:51:50.673Z,0.40
2023-02-12T06:54:19.750Z,0.40
2023-02-12T06:56:48.330Z,0.40
2023-02-12T06:59:18.311Z,0.40
2023-02-12T07:02:38.952Z,0.50
2023-02-12T07:05:10.531Z,0.50
2023-02-12T07:07:38.991Z,0.50
2023-02-12T07:10:09.452Z,0.60
2023-02-12T07:12:37.940Z,0.60
2023-02-12T07:15:06.873Z,0.60
2023-02-12T07:17:35.359Z,0.60
2023-02-12T07:20:03.981Z,0.60
2023-02-12T07:22:37.096Z,0.60
2023-02-12T07:25:06.237Z,0.70
2023-02-12T07:27:38.768Z,0.60
2023-02-12T07:30:09.453Z,0.70
2023-02-12T07:32:37.965Z,0.70
2023-02-12T07:35:07.551Z,0.60
2023-02-12T07:37:37.478Z,0.60
2023-02-12T07:40:07.677Z,0.60
2023-02-12T07:42:36.081Z,0.70
2023-02-12T07:45:04.764Z,0.70
2023-02-12T07:47:33.229Z,0.70
2023-02-12T07:50:01.727Z,0.60
2023-02-12T07:52:30.130Z,0.70
2023-02-12T07:54:59.946Z,0.70
2023-02-12T07:57:28.406Z,0.70
2023-02-12T07:59:57.064Z,0.70
2023-02-12T08:02:26.113Z,0.80
2023-02-12T08:04:57.435Z,0.80
2023-02-12T08:07:26.573Z,0.80
2023-02-12T08:09:55.026Z,0.80
2023-02-12T08:12:24.822Z,0.80
2023-02-12T08:14:54.388Z,0.70
2023-02-12T08:17:22.822Z,0.70
2023-02-12T08:19:51.264Z,0.70
2023-02-12T08:22:19.804Z,0.70
2023-02-12T08:24:49.216Z,0.70
2023-02-12T08:27:17.640Z,0.70
2023-02-12T08:29:47.778Z,0.90
2023-02-12T08:32:17.167Z,0.80
2023-02-12T08:34:45.698Z,0.80
2023-02-12T08:37:14.832Z,0.90
2023-02-12T08:39:43.507Z,0.80
2023-02-12T08:42:12.116Z,0.90
2023-02-12T08:44:40.782Z,0.90
2023-02-12T08:47:10.654Z,0.90
2023-02-12T08:49:39.395Z,0.90
2023-02-12T08:52:07.810Z,0.90
2023-02-12T08:54:36.431Z,0.90
2023-02-12T08:57:05.179Z,1.00
2023-02-12T08:59:33.774Z,1.00
2023-02-12T09:02:04.110Z,1.00
2023-02-12T09:04:35.947Z,1.00
2023-02-12T09:07:04.409Z,1.00
2023-02-12T09:09:32.963Z,1.00
2023-02-12T09:12:01.481Z,1.10
2023-02-12T09:14:29.913Z,1.10
2023-02-12T09:16:58.466Z,1.20
2023-02-12T09:19:27.359Z,1.20
2023-02-12T09:21:57.934Z,1.20
2023-02-12T09:24:27.648Z,1.30
2023-02-12T09:26:56.506Z,1.30
2023-02-12T09:29:25.221Z,1.30
2023-02-12T09:31:53.877Z,1.30
2023-02-12T09:34:22.402Z,1.30
2023-02-12T09:36:50.953Z,1.40
2023-02-12T09:39:20.774Z,1.40
2023-02-12T09:42:36.572Z,1.40
2023-02-12T09:45:17.689Z,1.40
2023-02-12T09:47:52.884Z,1.40
2023-02-12T09:50:39.366Z,1.40
2023-02-12T09:53:10.792Z,1.50
2023-02-12T09:55:43.033Z,1.50
2023-02-12T09:58:19.187Z,1.50
2023-02-12T10:00:47.667Z,1.50
2023-02-12T10:03:18.767Z,1.50
2023-02-12T10:05:52.986Z,1.60
2023-02-12T10:08:48.676Z,1.60
2023-02-12T10:11:53.260Z,1.60
2023-02-12T10:14:56.947Z,1.60
2023-02-12T10:17:37.759Z,1.60
2023-02-12T10:20:46.709Z,1.60
2023-02-12T10:23:35.170Z,1.60
2023-02-12T10:26:18.792Z,1.70
2023-02-12T10:28:49.074Z,1.80
2023-02-12T10:31:30.029Z,1.80
2023-02-12T10:33:59.283Z,1.90
2023-02-12T10:36:43.053Z,2.10
2023-02-12T10:39:20.859Z,2.20
2023-02-12T10:41:59.341Z,2.40
2023-02-12T10:44:30.123Z,2.60
2023-02-12T10:46:58.607Z,2.80
2023-02-12T10:49:27.891Z,2.90
2023-02-12T10:52:13.758Z,3.10
2023-02-12T10:54:45.663Z,3.30
2023-02-12T10:57:23.028Z,3.40
2023-02-12T10:59:57.164Z,3.40
2023-02-12T11:02:31.672Z,3.50
2023-02-12T11:05:32.967Z,3.50
2023-02-12T11:08:02.260Z,3.50
2023-02-12T11:10:34.088Z,3.50
2023-02-12T11:13:04.301Z,3.40
2023-02-12T11:15:39.939Z,3.40
2023-02-12T11:18:10.923Z,3.40
2023-02-12T11:20:41.876Z,3.50
2023-02-12T11:23:27.962Z,3.60
2023-02-12T11:26:01.253Z,3.60
2023-02-12T11:28:30.985Z,3.50
2023-02-12T11:31:28.177Z,3.50
2023-02-12T11:34:16.097Z,3.50
2023-02-12T11:36:46.895Z,3.60
2023-02-12T11:39:26.954Z,3.60
2023-02-12T11:41:58.992Z,3.70
2023-02-12T11:44:33.643Z,3.80
2023-02-12T11:47:09.209Z,3.80
2023-02-12T11:49:44.411Z,3.80
2023-02-12T11:52:24.092Z,3.80
2023-02-12T11:54:56.607Z,3.80
2023-02-12T11:57:38.670Z,3.90
2023-02-12T12:00:16.519Z,3.90
2023-02-12T12:02:51.506Z,4.00
2023-02-12T12:05:23.240Z,3.90
2023-02-12T12:08:23.005Z,4.00
2023-02-12T12:10:59.041Z,4.00
2023-02-12T12:13:36.333Z,4.00
2023-02-12T12:16:43.765Z,3.90
2023-02-12T12:19:40.245Z,3.80
2023-02-12T12:22:25.787Z,3.80
2023-02-12T12:25:01.699Z,3.80
2023-02-12T12:27:58.824Z,3.80
2023-02-12T12:30:41.953Z,3.80
2023-02-12T12:33:21.117Z,3.90
2023-02-12T12:36:08.130Z,3.90
2023-02-12T12:38:53.725Z,3.90
2023-02-12T12:41:36.667Z,3.90
2023-02-12T12:44:47.261Z,4.00
2023-02-12T12:47:32.820Z,4.10
2023-02-12T12:50:23.296Z,4.10
2023-02-12T12:53:19.977Z,4.10
2023-02-12T12:56:06.422Z,4.20
2023-02-12T12:58:53.436Z,4.20
2023-02-12T13:02:02.535Z,4.10
2023-02-12T13:05:20.474Z,4.10
2023-02-12T13:08:07.921Z,4.00
2023-02-12T13:10:43.103Z,4.00
2023-02-12T13:13:26.921Z,4.00
2023-02-12T13:16:07.278Z,3.90
2023-02-12T13:18:51.918Z,3.90
2023-02-12T13:21:48.090Z,3.90
2023-02-12T13:24:32.996Z,4.00
2023-02-12T13:27:04.966Z,4.00
2023-02-12T13:29:41.381Z,3.90
2023-02-12T13:32:17.941Z,3.90
2023-02-12T13:34:46.910Z,3.90
2023-02-12T13:37:21.617Z,4.00
2023-02-12T13:39:54.189Z,4.00
2023-02-12T13:42:44.556Z,4.00
2023-02-12T13:45:36.121Z,4.00
2023-02-12T13:48:36.739Z,4.10
2023-02-12T13:51:16.898Z,4.00
2023-02-12T13:54:01.690Z,4.00
2023-02-12T13:56:43.243Z,4.00
2023-02-12T13:59:41.861Z,4.00
2023-02-12T14:02:44.401Z,3.90
2023-02-12T14:05:26.337Z,3.90
2023-02-12T14:07:58.644Z,3.90
2023-02-12T14:10:32.871Z,3.80
2023-02-12T14:13:17.476Z,3.70
2023-02-12T14:15:51.276Z,3.70
2023-02-12T14:18:37.528Z,3.60
2023-02-12T14:21:36.774Z,3.60
2023-02-12T14:25:24.407Z,3.60
2023-02-12T14:27:56.520Z,3.60
2023-02-12T14:30:35.099Z,3.60
2023-02-12T14:33:25.723Z,3.50
2023-02-12T14:36:40.821Z,3.50
2023-02-12T14:39:30.813Z,3.50
2023-02-12T14:42:45.853Z,3.40
2023-02-12T14:48:08.954Z,3.40
2023-02-12T14:50:50.303Z,3.30
2023-02-12T14:53:31.782Z,3.20
2023-02-12T14:56:01.498Z,3.20
2023-02-12T14:58:31.982Z,3.10
2023-02-12T15:01:04.032Z,3.10
2023-02-12T15:04:13.665Z,3.10
2023-02-12T15:06:52.030Z,3.00
2023-02-12T15:09:30.814Z,3.00
2023-02-12T15:12:13.004Z,3.00
2023-02-12T15:15:08.894Z,2.90
2023-02-12T15:17:42.877Z,2.90
2023-02-12T15:20:24.262Z,2.80
2023-02-12T15:22:52.709Z,2.80
2023-02-12T15:25:28.777Z,2.80
2023-02-12T15:28:00.700Z,2.70
2023-02-12T15:30:33.735Z,2.70
2023-02-12T15:33:07.884Z,2.70
2023-02-12T15:35:45.328Z,2.60
2023-02-12T15:38:24.502Z,2.60
2023-02-12T15:40:59.007Z,2.60
2023-02-12T15:43:31.490Z,2.50
2023-02-12T15:46:00.260Z,2.50
2023-02-12T15:48:33.443Z,2.40
2023-02-12T15:51:16.172Z,2.40
2023-02-12T15:53:45.650Z,2.30
2023-02-12T15:56:42.277Z,2.30
2023-02-12T15:59:22.497Z,2.30
2023-02-12T16:01:57.689Z,2.20
2023-02-12T16:04:30.665Z,2.20
2023-02-12T16:07:02.612Z,2.20
2023-02-12T16:09:34.849Z,2.20
2023-02-12T16:12:11.312Z,2.20
2023-02-12T16:14:44.821Z,2.10
2023-02-12T16:17:27.693Z,2.10
2023-02-12T16:19:59.875Z,2.10
2023-02-12T16:22:35.113Z,2.00
2023-02-12T16:25:05.912Z,2.00
2023-02-12T16:28:01.539Z,2.00
2023-02-12T16:30:34.026Z,1.90
2023-02-12T16:33:03.274Z,1.90
2023-02-12T16:35:34.455Z,1.90
2023-02-12T16:38:40.384Z,1.90
2023-02-12T16:41:34.124Z,1.90
2023-02-12T16:44:31.600Z,1.90
2023-02-12T16:47:02.820Z,1.80
2023-02-12T16:49:31.635Z,1.80
2023-02-12T16:52:32.454Z,1.80
2023-02-12T16:55:02.433Z,1.80
2023-02-12T16:57:31.083Z,1.80
2023-02-12T16:59:59.600Z,1.80
2023-02-12T17:02:28.068Z,1.80
2023-02-12T17:05:00.904Z,1.80
2023-02-12T17:07:31.134Z,1.80
2023-02-12T17:10:01.289Z,1.80
2023-02-12T17:12:30.539Z,1.80
2023-02-12T17:14:59.138Z,1.90
2023-02-12T17:17:27.568Z,1.80
2023-02-12T17:19:56.103Z,1.90
2023-02-12T17:22:27.999Z,1.90
2023-02-12T17:24:56.456Z,1.90
2023-02-12T17:27:26.360Z,1.90
2023-02-12T17:29:54.781Z,1.90
2023-02-12T17:32:24.614Z,1.80
2023-02-12T17:34:53.301Z,1.90
2023-02-12T17:37:22.311Z,1.90
2023-02-12T17:39:50.851Z,1.90
2023-02-12T17:42:19.752Z,1.80
2023-02-12T17:44:49.658Z,1.80
2023-02-12T17:47:18.150Z,1.80
2023-02-12T17:49:46.642Z,1.80
2023-02-12T17:52:15.098Z,1.80
2023-02-12T17:54:46.561Z,1.80
2023-02-12T17:57:15.057Z,1.80
2023-02-12T17:59:43.740Z,1.80
2023-02-12T18:02:13.926Z,1.80
2023-02-12T18:04:42.641Z,1.80
2023-02-12T18:07:11.209Z,1.80
2023-02-12T18:09:40.046Z,1.80
2023-02-12T18:12:09.920Z,1.80
2023-02-12T18:14:38.371Z,1.70
2023-02-12T18:17:06.960Z,1.80
2023-02-12T18:19:36.860Z,1.70
2023-02-12T18:22:05.414Z,1.70
2023-02-12T18:24:35.106Z,1.80
2023-02-12T18:27:03.692Z,1.80
2023-02-12T18:29:32.154Z,1.70
2023-02-12T18:32:00.699Z,1.80
2023-02-12T18:34:29.238Z,1.80
2023-02-12T18:36:59.191Z,1.80
2023-02-12T18:39:27.884Z,1.90
2023-02-12T18:41:56.456Z,1.80
2023-02-12T18:44:24.997Z,1.90
2023-02-12T18:46:53.602Z,1.90
2023-02-12T18:49:22.095Z,1.90
2023-02-12T18:51:50.575Z,1.80
2023-02-12T18:54:20.838Z,1.80
2023-02-12T18:56:53.399Z,1.80
2023-02-12T18:59:25.150Z,1.80
2023-02-12T19:01:54.878Z,1.80
2023-02-12T19:04:26.537Z,1.70
2023-02-12T19:06:56.202Z,1.60
2023-02-12T19:09:28.158Z,1.60
2023-02-12T19:11:59.582Z,1.60
2023-02-12T19:14:29.613Z,1.70
2023-02-12T19:16:58.048Z,1.60
2023-02-12T19:19:27.881Z,1.60
2023-02-12T19:21:56.394Z,1.50
2023-02-12T19:24:30.490Z,1.50
2023-02-12T19:27:06.276Z,1.50
2023-02-12T19:29:41.862Z,1.40
2023-02-12T19:32:10.549Z,1.40
2023-02-12T19:34:39.288Z,1.40
2023-02-12T19:37:10.915Z,1.50
2023-02-12T19:39:42.174Z,1.40
2023-02-12T19:42:12.886Z,1.40
2023-02-12T19:44:41.711Z,1.40
2023-02-12T19:47:12.572Z,1.30
2023-02-12T19:49:41.457Z,1.20
2023-02-12T19:52:10.384Z,1.20
2023-02-12T19:54:40.308Z,1.10
2023-02-12T19:57:12.004Z,1.20
2023-02-12T19:59:42.107Z,1.20
2023-02-12T20:02:11.651Z,1.10
2023-02-12T20:04:40.679Z,1.20
2023-02-12T20:07:09.509Z,1.00
2023-02-12T20:09:38.207Z,0.90
2023-02-12T20:12:08.469Z,0.90
2023-02-12T20:14:36.929Z,0.80
2023-02-12T20:17:05.929Z,0.70
2023-02-12T20:19:34.604Z,0.80
2023-02-12T20:22:04.662Z,0.70
2023-02-12T20:24:35.353Z,0.70
2023-02-12T20:27:04.493Z,0.60
2023-02-12T20:29:34.361Z,0.60
2023-02-12T20:32:02.948Z,0.50
2023-02-12T20:34:34.784Z,0.50
2023-02-12T20:37:11.566Z,0.40
2023-02-12T20:39:40.046Z,0.30
2023-02-12T20:42:08.816Z,0.20
2023-02-12T20:44:39.045Z,0.10
2023-02-12T20:47:07.683Z,0.20
2023-02-12T20:49:36.218Z,0.20
2023-02-12T20:52:04.651Z,0.20
2023-02-12T20:54:33.137Z,0.10
2023-02-12T20:57:06.722Z,0.10
2023-02-12T20:59:35.237Z,0.10
2023-02-12T21:02:05.471Z,0.00
2023-02-12T21:04:59.113Z,0.00
2023-02-12T21:07:27.637Z,0.00
2023-02-12T21:09:56.440Z,0.00
2023-02-12T21:12:24.952Z,0.00
2023-02-12T21:14:53.538Z,-0.10
2023-02-12T21:17:24.683Z,-0.20
2023-02-12T21:19:53.234Z,-0.20
2023-02-12T21:22:22.258Z,-0.20
2023-02-12T21:24:50.788Z,-0.20
2023-02-12T21:27:19.291Z,-0.20
2023-02-12T21:29:47.799Z,-0.20
2023-02-12T21:32:16.596Z,-0.30
2023-02-12T21:34:48.590Z,-0.30
2023-02-12T21:37:17.387Z,-0.30
2023-02-12T21:39:46.088Z,-0.30
2023-02-12T21:42:14.609Z,-0.30
2023-02-12T21:44:43.136Z,-0.30
2023-02-12T21:47:11.923Z,-0.30
2023-02-12T21:49:40.487Z,-0.30
2023-02-12T21:52:11.582Z,-0.30
2023-02-12T21:54:40.196Z,-0.30
2023-02-12T21:57:08.774Z,-0.30
2023-02-12T21:59:37.329Z,-0.30
2023-02-12T22:02:06.071Z,-0.20
2023-02-12T22:04:34.702Z,-0.20
2023-02-12T22:07:03.865Z,-0.30
2023-02-12T22:09:34.185Z,-0.20
2023-02-12T22:12:02.772Z,-0.20
2023-02-12T22:14:31.397Z,-0.30
2023-02-12T22:16:59.932Z,-0.20
2023-02-12T22:19:28.510Z,-0.20
2023-02-12T22:21:57.037Z,-0.20
2023-02-12T22:24:25.633Z,-0.20
2023-02-12T22:26:56.174Z,-0.20
2023-02-12T22:29:24.686Z,-0.20
2023-02-12T22:31:53.350Z,-0.20
2023-02-12T22:34:21.876Z,-0.20
2023-02-12T22:36:50.541Z,-0.30
2023-02-12T22:39:19.361Z,-0.30
2023-02-12T22:41:48.279Z,-0.40
2023-02-12T22:44:21.070Z,-0.40
2023-02-12T22:46:50.388Z,-0.40
2023-02-12T22:49:18.971Z,-0.30
2023-02-12T22:51:47.755Z,-0.40
2023-02-12T22:54:19.185Z,-0.50
2023-02-12T22:56:51.486Z,-0.60
2023-02-12T22:59:21.370Z,-0.50
2023-02-12T23:01:49.847Z,-0.60
2023-02-12T23:04:19.710Z,-0.60
2023-02-12T23:06:48.732Z,-0.70
2023-02-12T23:09:19.331Z,-0.70
2023-02-12T23:12:13.302Z,-0.70
2023-02-12T23:15:11.635Z,-0.70
2023-02-12T23:17:40.159Z,-0.80
2023-02-12T23:20:10.101Z,-0.80
2023-02-12T23:22:38.604Z,-0.80
2023-02-12T23:25:07.580Z,-0.80
2023-02-12T23:27:36.112Z,-0.80
2023-02-12T23:30:05.067Z,-0.80
2023-02-12T23:32:34.943Z,-0.70
2023-02-12T23:35:03.467Z,-0.70
2023-02-12T23:37:31.999Z,-0.70
2023-02-12T23:40:00.541Z,-0.70
2023-02-12T23:42:29.054Z,-0.70
2023-02-12T23:45:22.150Z,-0.80
2023-02-12T23:47:52.078Z,-0.80
2023-02-12T23:50:20.931Z,-0.90
2023-02-12T23:52:49.681Z,-0.90
2023-02-12T23:55:20.248Z,-0.90
2023-02-12T23:57:49.870Z,-0.90
